Time;durP1;ratioP1;P1;durP2;ratioP2;P2;SDS_P1;SDS_P2;PMS_P1;PMS_P2;Temp;Humidity;BMP_temperature;BMP_pressure;BME280_temperature;BME280_humidity;BME280_pressure;Samples;Min_cycle;Max_cycle;Signal;HPM_P1;HPM_P2
2022/01/19 00:01:30;;;;;;;81.63;46.33;;;;;;;-144.47;100.00;61586.06;5013806;28;20037;-80
2022/01/19 00:03:56;;;;;;;91.57;46.42;;;;;;;-144.47;100.00;61586.06;5010034;28;20027;-77
2022/01/19 00:06:22;;;;;;;83.43;44.42;;;;;;;-144.47;100.00;61586.06;5013315;28;20375;-76
2022/01/19 00:08:47;;;;;;;82.47;44.20;;;;;;;-144.47;100.00;61586.06;5011707;28;20030;-78
2022/01/19 00:11:13;;;;;;;86.70;44.88;;;;;;;-144.47;100.00;61586.06;5008871;28;20522;-79
2022/01/19 00:13:39;;;;;;;79.22;43.63;;;;;;;-144.47;100.00;61586.06;5007809;28;20068;-78
2022/01/19 00:16:04;;;;;;;84.15;46.10;;;;;;;-144.47;100.00;61586.06;5005145;28;20030;-79
2022/01/19 00:18:30;;;;;;;81.03;44.08;;;;;;;-144.47;100.00;61586.06;5005116;28;20394;-80
2022/01/19 00:20:56;;;;;;;76.82;42.67;;;;;;;-144.47;100.00;61586.06;5008017;28;20220;-79
2022/01/19 00:23:22;;;;;;;82.90;42.85;;;;;;;-144.47;100.00;61586.06;5005757;28;21476;-79
2022/01/19 00:25:50;;;;;;;80.63;43.45;;;;;;;-144.47;100.00;61586.06;5008190;28;20037;-78
2022/01/19 00:28:17;;;;;;;79.80;43.92;;;;;;;-144.47;100.00;61586.06;5005473;28;20031;-79
2022/01/19 00:30:43;;;;;;;82.22;44.22;;;;;;;-144.47;100.00;61586.06;5004656;28;20117;-80
2022/01/19 00:33:09;;;;;;;80.32;43.22;;;;;;;-144.47;100.00;61586.06;5006871;28;20046;-79
2022/01/19 00:35:35;;;;;;;81.47;43.85;;;;;;;-144.47;100.00;61586.06;5011234;28;20044;-79
2022/01/19 00:38:06;;;;;;;83.60;44.55;;;;;;;-144.47;100.00;61586.06;5008192;28;20030;-80
2022/01/19 00:40:31;;;;;;;83.68;44.45;;;;;;;-144.47;100.00;61586.06;5006176;28;20456;-80
2022/01/19 00:42:57;;;;;;;79.47;41.60;;;;;;;-144.47;100.00;61586.06;5006345;28;20090;-80
2022/01/19 00:45:23;;;;;;;82.07;44.20;;;;;;;-144.47;100.00;61586.06;5007567;28;20061;-79
2022/01/19 00:47:50;;;;;;;82.22;46.17;;;;;;;-144.47;100.00;61586.06;4988281;28;20038;-79
2022/01/19 00:50:19;;;;;;;90.03;46.85;;;;;;;-144.47;100.00;61586.06;5006726;28;20038;-78
2022/01/19 00:52:45;;;;;;;94.72;49.22;;;;;;;-144.47;100.00;61586.06;5004762;28;20041;-78
2022/01/19 00:55:12;;;;;;;99.13;52.95;;;;;;;-144.47;100.00;61586.06;5004084;28;20403;-77
2022/01/19 00:57:40;;;;;;;98.95;53.17;;;;;;;-144.47;100.00;61586.06;5006584;28;20498;-78
2022/01/19 01:00:08;;;;;;;99.78;52.67;;;;;;;-144.47;100.00;61586.06;5008880;28;20072;-79
2022/01/19 01:02:34;;;;;;;109.75;56.13;;;;;;;-144.47;100.00;61586.06;5009161;28;20120;-79
2022/01/19 01:04:59;;;;;;;106.45;57.40;;;;;;;-144.47;100.00;61586.06;5003232;28;20093;-78
2022/01/19 01:07:25;;;;;;;106.75;57.38;;;;;;;-144.47;100.00;61586.06;5001809;28;20065;-78
2022/01/19 01:09:50;;;;;;;104.43;56.95;;;;;;;-144.47;100.00;61586.06;5004015;28;20046;-78
2022/01/19 01:12:29;;;;;;;103.00;54.22;;;;;;;-144.47;100.00;61586.06;5003578;28;20030;-79
2022/01/19 01:20:24;;;;;;;93.28;50.22;;;;;;;-144.47;100.00;61586.06;5017270;28;20538;-79
2022/01/19 01:22:50;;;;;;;90.57;46.15;;;;;;;-144.47;100.00;61586.06;5018714;28;20069;-77
2022/01/19 01:25:16;;;;;;;87.93;46.88;;;;;;;-144.47;100.00;61586.06;5020436;28;20203;-78
2022/01/19 01:27:41;;;;;;;84.07;45.85;;;;;;;-144.47;100.00;61586.06;5021895;28;20076;-77
2022/01/19 01:30:09;;;;;;;87.47;45.15;;;;;;;-144.47;100.00;61586.06;5002171;28;20042;-80
2022/01/19 01:32:35;;;;;;;84.13;46.25;;;;;;;-144.47;100.00;61586.06;4992871;28;20479;-78
2022/01/19 01:35:01;;;;;;;84.32;43.83;;;;;;;-144.47;100.00;61586.06;5004564;28;20109;-79
2022/01/19 01:37:26;;;;;;;77.90;44.42;;;;;;;-144.47;100.00;61586.06;5001520;28;20026;-78
2022/01/19 01:39:52;;;;;;;85.05;42.97;;;;;;;-144.47;100.00;61586.06;4998765;28;20077;-79
2022/01/19 01:42:20;;;;;;;82.85;42.53;;;;;;;-144.47;100.00;61586.06;4999584;28;20054;-79
2022/01/19 01:44:49;;;;;;;76.07;40.92;;;;;;;-144.47;100.00;61586.06;5001378;28;20041;-79
2022/01/19 01:47:17;;;;;;;73.93;41.63;;;;;;;-144.47;100.00;61586.06;4999877;28;20053;-78
2022/01/19 01:54:55;;;;;;;72.20;40.28;;;;;;;-144.47;100.00;61586.06;5000315;28;20095;-79
2022/01/19 01:57:21;;;;;;;71.32;39.03;;;;;;;-144.47;100.00;61586.06;4998830;28;20034;-79
2022/01/19 01:59:47;;;;;;;76.65;40.70;;;;;;;-144.47;100.00;61586.06;5001149;28;20149;-78
2022/01/19 02:02:36;;;;;;;81.22;42.35;;;;;;;-144.47;100.00;61586.06;4999091;28;20035;-79
2022/01/19 02:05:02;;;;;;;78.75;41.10;;;;;;;-144.47;100.00;61586.06;5003304;28;20034;-79
2022/01/19 02:07:44;;;;;;;82.18;39.72;;;;;;;-144.47;100.00;61586.06;4997674;28;20037;-78
2022/01/19 02:10:31;;;;;;;77.45;39.92;;;;;;;-144.47;100.00;61586.06;5031996;28;20472;-79
2022/01/19 02:23:53;;;;;;;80.53;40.90;;;;;;;-144.47;100.00;61586.06;5001434;28;20041;-79
2022/01/19 02:26:32;;;;;;;76.82;41.65;;;;;;;-144.47;100.00;61586.06;5001570;28;20034;-79
2022/01/19 02:29:08;;;;;;;81.70;42.47;;;;;;;-144.47;100.00;61586.06;4994578;28;20081;-78
2022/01/19 02:42:02;;;;;;;76.20;42.58;;;;;;;-144.47;100.00;61586.06;5000107;28;20068;-79
2022/01/19 02:49:49;;;;;;;76.80;39.40;;;;;;;-144.47;100.00;61586.06;5005050;28;20065;-77
2022/01/19 02:52:17;;;;;;;72.53;39.83;;;;;;;-144.47;100.00;61586.06;5002761;28;20124;-77
2022/01/19 02:54:43;;;;;;;77.03;40.17;;;;;;;-144.47;100.00;61586.06;5012314;28;20133;-77
2022/01/19 02:57:12;;;;;;;72.85;39.97;;;;;;;-144.47;100.00;61586.06;5014974;28;20036;-78
2022/01/19 03:10:38;;;;;;;81.50;38.75;;;;;;;-144.47;100.00;61586.06;4995502;28;20116;-78
2022/01/19 03:13:04;;;;;;;68.78;36.90;;;;;;;-144.47;100.00;61586.06;5000519;28;20040;-77
2022/01/19 03:15:31;;;;;;;73.40;39.20;;;;;;;-144.47;100.00;61586.06;4997990;28;20034;-78
2022/01/19 03:17:59;;;;;;;80.55;40.00;;;;;;;-144.47;100.00;61586.06;5000849;28;20561;-78
2022/01/19 03:20:26;;;;;;;74.70;41.10;;;;;;;-144.47;100.00;61586.06;4998362;28;20065;-78
2022/01/19 03:23:03;;;;;;;73.05;39.80;;;;;;;-144.47;100.00;61586.06;4997579;28;20165;-78
2022/01/19 03:25:30;;;;;;;81.93;43.60;;;;;;;-144.47;100.00;61586.06;4993437;28;20035;-79
2022/01/19 03:27:55;;;;;;;85.95;45.25;;;;;;;-144.47;100.00;61586.06;4999977;28;20025;-79
2022/01/19 03:30:22;;;;;;;85.78;45.85;;;;;;;-144.47;100.00;61586.06;4998019;28;20125;-78
2022/01/19 03:32:49;;;;;;;83.82;45.38;;;;;;;-144.47;100.00;61586.06;4999639;28;20077;-79
2022/01/19 03:35:15;;;;;;;85.50;46.70;;;;;;;-144.47;100.00;61586.06;5000348;28;20494;-79
2022/01/19 03:37:41;;;;;;;77.60;43.47;;;;;;;-144.47;100.00;61586.06;4998572;28;20109;-79
2022/01/19 03:40:09;;;;;;;85.13;45.20;;;;;;;-144.47;100.00;61586.06;5000711;28;20040;-80
2022/01/19 03:42:35;;;;;;;84.45;45.67;;;;;;;-144.47;100.00;61586.06;5000227;28;20147;-78
2022/01/19 03:45:02;;;;;;;84.90;45.22;;;;;;;-144.47;100.00;61586.06;4998807;28;20082;-79
2022/01/19 03:47:28;;;;;;;86.88;46.03;;;;;;;-144.47;100.00;61586.06;4997468;28;20104;-78
2022/01/19 03:49:54;;;;;;;80.63;44.67;;;;;;;-144.47;100.00;61586.06;4999812;28;20553;-79
2022/01/19 03:52:21;;;;;;;75.28;43.67;;;;;;;-144.47;100.00;61586.06;5000006;28;20037;-78
2022/01/19 03:54:46;;;;;;;78.78;45.88;;;;;;;-144.47;100.00;61586.06;4998626;28;20034;-79
2022/01/19 03:57:13;;;;;;;81.13;44.22;;;;;;;-144.47;100.00;61586.06;4999113;28;20056;-79
2022/01/19 03:59:39;;;;;;;76.30;44.03;;;;;;;-144.47;100.00;61586.06;4997674;28;20035;-79
2022/01/19 04:02:05;;;;;;;76.70;43.75;;;;;;;-144.47;100.00;61586.06;4996528;28;20045;-79
2022/01/19 04:04:43;;;;;;;77.40;43.25;;;;;;;-144.47;100.00;61586.06;5000765;28;20084;-79
2022/01/19 04:07:09;;;;;;;77.95;44.03;;;;;;;-144.47;100.00;61586.06;4997873;28;20086;-78
2022/01/19 04:09:42;;;;;;;75.05;42.72;;;;;;;-144.47;100.00;61586.06;4999249;28;20045;-79
2022/01/19 04:12:10;;;;;;;78.03;41.83;;;;;;;-144.47;100.00;61586.06;4998986;28;20049;-79
2022/01/19 04:14:36;;;;;;;74.03;40.42;;;;;;;-144.47;100.00;61586.06;4999832;28;20053;-79
2022/01/19 04:17:06;;;;;;;75.50;40.03;;;;;;;-144.47;100.00;61586.06;4997152;28;20341;-80
2022/01/19 04:19:49;;;;;;;70.57;41.05;;;;;;;-144.47;100.00;61586.06;5026722;28;20587;-79
2022/01/19 04:22:20;;;;;;;73.47;39.58;;;;;;;-144.47;100.00;61586.06;4999849;28;20356;-79
2022/01/19 04:24:47;;;;;;;77.57;38.95;;;;;;;-144.47;100.00;61586.06;4996489;28;20125;-79
2022/01/19 04:30:02;;;;;;;75.22;39.33;;;;;;;-144.47;100.00;61586.06;4998905;28;20042;-79
2022/01/19 04:35:49;;;;;;;76.10;40.65;;;;;;;-144.47;100.00;61586.06;4980658;28;20210;-79
2022/01/19 05:15:41;;;;;;;74.55;39.58;;;;;;;-144.47;100.00;61586.06;5006416;28;20033;-78
2022/01/19 05:18:10;;;;;;;75.82;41.08;;;;;;;-144.47;100.00;61586.06;4998768;28;20158;-78
2022/01/19 05:20:35;;;;;;;72.43;41.53;;;;;;;-144.47;100.00;61586.06;5004236;28;20512;-79
2022/01/19 05:23:01;;;;;;;76.70;40.45;;;;;;;-144.47;100.00;61586.06;5001084;28;20046;-79
2022/01/19 05:25:27;;;;;;;77.63;41.88;;;;;;;-144.47;100.00;61586.06;5002001;28;20030;-79
2022/01/19 05:28:25;;;;;;;69.70;39.90;;;;;;;-144.47;100.00;61586.06;5003250;28;20101;-78
2022/01/19 05:30:50;;;;;;;77.03;42.22;;;;;;;-144.47;100.00;61586.06;5004534;28;20130;-80
2022/01/19 05:33:16;;;;;;;75.38;42.22;;;;;;;-144.47;100.00;61586.06;5003628;28;20073;-78
2022/01/19 05:35:42;;;;;;;74.78;41.65;;;;;;;-144.47;100.00;61586.06;5017437;28;20061;-78
2022/01/19 05:38:26;;;;;;;74.95;40.60;;;;;;;-144.47;100.00;61586.06;5015673;28;20443;-79
2022/01/19 05:41:12;;;;;;;71.85;40.13;;;;;;;-144.47;100.00;61586.06;5018932;28;20060;-77
2022/01/19 05:43:39;;;;;;;73.88;42.22;;;;;;;-144.47;100.00;61586.06;5015080;28;20038;-78
2022/01/19 05:46:04;;;;;;;76.05;42.35;;;;;;;-144.47;100.00;61586.06;5005104;28;20084;-79
2022/01/19 05:48:33;;;;;;;83.53;40.72;;;;;;;-144.47;100.00;61586.06;5005675;28;20520;-78
2022/01/19 05:50:59;;;;;;;73.18;40.20;;;;;;;-144.47;100.00;61586.06;4987827;28;20041;-75
2022/01/19 05:53:28;;;;;;;73.07;40.92;;;;;;;-144.47;100.00;61586.06;5003718;28;20046;-76
2022/01/19 05:55:54;;;;;;;74.35;40.40;;;;;;;-144.47;100.00;61586.06;4999916;28;20025;-79
2022/01/19 05:58:19;;;;;;;85.65;43.95;;;;;;;-144.47;100.00;61586.06;5000748;28;20171;-78
2022/01/19 06:00:48;;;;;;;73.97;42.88;;;;;;;-144.47;100.00;61586.06;4985792;28;20037;-77
2022/01/19 06:03:15;;;;;;;75.22;41.83;;;;;;;-144.47;100.00;61586.06;5001820;28;20831;-76
2022/01/19 06:06:00;;;;;;;71.80;40.63;;;;;;;-144.47;100.00;61586.06;4997416;28;20092;-75
2022/01/19 06:08:44;;;;;;;73.68;41.58;;;;;;;-144.47;100.00;61586.06;5000382;28;20033;-75
2022/01/19 06:11:11;;;;;;;74.80;41.80;;;;;;;-144.47;100.00;61586.06;5000154;28;20034;-73
2022/01/19 06:13:38;;;;;;;72.32;40.40;;;;;;;-144.47;100.00;61586.06;4999105;28;20034;-75
2022/01/19 06:16:04;;;;;;;73.40;42.55;;;;;;;-144.47;100.00;61586.06;5001529;28;20033;-75
2022/01/19 06:18:30;;;;;;;75.90;42.28;;;;;;;-144.47;100.00;61586.06;5000052;28;20038;-75
2022/01/19 06:20:56;;;;;;;74.38;41.65;;;;;;;-144.47;100.00;61586.06;4999943;28;20038;-78
2022/01/19 06:23:30;;;;;;;78.13;43.40;;;;;;;-144.47;100.00;61586.06;4986154;28;20046;-77
2022/01/19 06:26:00;;;;;;;76.90;42.58;;;;;;;-144.47;100.00;61586.06;4999554;28;20031;-77
2022/01/19 06:28:26;;;;;;;75.18;42.60;;;;;;;-144.47;100.00;61586.06;5002543;28;20371;-76
2022/01/19 06:30:52;;;;;;;74.38;42.38;;;;;;;-144.47;100.00;61586.06;4995745;28;20117;-75
2022/01/19 06:33:17;;;;;;;72.75;41.58;;;;;;;-144.47;100.00;61586.06;4652685;28;10000480;-77
2022/01/19 06:35:43;;;;;;;76.80;40.95;;;;;;;-144.47;100.00;61586.06;4996248;28;20049;-75
2022/01/19 06:38:22;;;;;;;70.85;40.97;;;;;;;-144.47;100.00;61586.06;4992156;28;20025;-75
2022/01/19 06:40:56;;;;;;;75.85;42.25;;;;;;;-144.47;100.00;61586.06;4998230;28;20048;-75
2022/01/19 06:43:22;;;;;;;75.05;42.28;;;;;;;-144.47;100.00;61586.06;4996839;28;20140;-77
2022/01/19 06:45:48;;;;;;;81.88;39.90;;;;;;;-144.47;100.00;61586.06;4998145;28;20402;-76
2022/01/19 06:48:13;;;;;;;74.32;42.60;;;;;;;-144.47;100.00;61586.06;4998110;28;20137;-76
2022/01/19 06:50:39;;;;;;;80.80;40.03;;;;;;;-144.47;100.00;61586.06;4981044;28;20042;-76
2022/01/19 06:53:06;;;;;;;76.72;41.35;;;;;;;-144.47;100.00;61586.06;4997469;28;20060;-75
2022/01/19 06:55:32;;;;;;;75.32;42.28;;;;;;;-144.47;100.00;61586.06;4994507;28;20034;-75
2022/01/19 06:57:59;;;;;;;73.93;41.70;;;;;;;-144.47;100.00;61586.06;4990153;28;20577;-75
2022/01/19 07:00:55;;;;;;;79.43;41.47;;;;;;;-144.47;100.00;61586.06;4291466;28;10001415;-75
2022/01/19 07:03:37;;;;;;;76.13;41.60;;;;;;;-144.47;100.00;61586.06;4999323;28;20073;-76
2022/01/19 07:06:16;;;;;;;75.68;40.85;;;;;;;-144.47;100.00;61586.06;5003673;28;20129;-76
2022/01/19 07:09:14;;;;;;;78.97;41.22;;;;;;;-144.47;100.00;61586.06;4985698;28;20042;-76
2022/01/19 07:11:45;;;;;;;78.45;41.83;;;;;;;-144.47;100.00;61586.06;4999233;28;20132;-77
2022/01/19 07:14:14;;;;;;;80.55;44.55;;;;;;;-144.47;100.00;61586.06;5000751;28;20538;-76
2022/01/19 07:16:40;;;;;;;74.03;40.97;;;;;;;-144.47;100.00;61586.06;5000671;28;20102;-77
2022/01/19 07:19:06;;;;;;;77.00;42.03;;;;;;;-144.47;100.00;61586.06;5001250;28;20034;-76
2022/01/19 07:21:32;;;;;;;80.38;42.97;;;;;;;-144.47;100.00;61586.06;4998593;28;20124;-77
2022/01/19 07:23:58;;;;;;;80.05;42.80;;;;;;;-144.47;100.00;61586.06;4994764;28;20030;-76
2022/01/19 07:26:24;;;;;;;74.65;41.10;;;;;;;-144.47;100.00;61586.06;5014277;28;20099;-75
2022/01/19 07:28:50;;;;;;;76.43;43.17;;;;;;;-144.47;100.00;61586.06;5001162;28;20125;-76
2022/01/19 07:31:16;;;;;;;75.57;40.85;;;;;;;-144.47;100.00;61586.06;5000446;28;20034;-78
2022/01/19 07:33:42;;;;;;;75.95;40.55;;;;;;;-144.47;100.00;61586.06;5000475;28;20050;-76
2022/01/19 07:36:07;;;;;;;70.72;42.67;;;;;;;-144.47;100.00;61586.06;5000567;28;20487;-77
2022/01/19 07:38:33;;;;;;;77.53;43.38;;;;;;;-144.47;100.00;61586.06;4997887;28;20054;-77
2022/01/19 07:40:59;;;;;;;76.57;41.95;;;;;;;-144.47;100.00;61586.06;4997624;28;20049;-78
2022/01/19 07:43:25;;;;;;;75.50;42.40;;;;;;;-144.47;100.00;61586.06;5000476;28;20034;-77
2022/01/19 07:46:09;;;;;;;66.85;38.90;;;;;;;-144.47;100.00;61586.06;4997078;28;20108;-77
2022/01/19 07:49:02;;;;;;;70.53;41.10;;;;;;;-144.47;100.00;61586.06;4995041;28;20034;-75
2022/01/19 07:51:31;;;;;;;79.43;42.90;;;;;;;-144.47;100.00;61586.06;4993897;28;20060;-77
2022/01/19 07:54:15;;;;;;;70.00;42.25;;;;;;;-144.47;100.00;61586.06;4998532;28;20053;-75
2022/01/19 07:56:59;;;;;;;73.75;40.90;;;;;;;-144.47;100.00;61586.06;4994458;28;20101;-77
2022/01/19 07:59:34;;;;;;;75.32;41.85;;;;;;;-144.47;100.00;61586.06;4993733;28;20527;-76
2022/01/19 08:02:05;;;;;;;72.20;40.67;;;;;;;-144.47;100.00;61586.06;4999571;28;20539;-76
2022/01/19 08:04:49;;;;;;;78.32;42.67;;;;;;;-144.47;100.00;61586.06;4999219;28;20048;-77
2022/01/19 08:07:18;;;;;;;68.55;40.88;;;;;;;-144.47;100.00;61586.06;4999207;28;20157;-77
2022/01/19 08:09:45;;;;;;;72.45;41.30;;;;;;;-144.47;100.00;61586.06;4998459;28;20041;-77
2022/01/19 08:12:11;;;;;;;73.65;41.03;;;;;;;-144.47;100.00;61586.06;4998047;28;20046;-77
2022/01/19 08:14:41;;;;;;;;;;;;;;;-144.47;100.00;61586.06;5000609;28;20498;-77
2022/01/19 08:17:07;;;;;;;68.85;40.00;;;;;;;-144.47;100.00;61586.06;5001601;28;19918;-77
2022/01/19 08:19:35;;;;;;;71.28;41.80;;;;;;;-144.47;100.00;61586.06;5004023;28;20713;-78
2022/01/19 08:22:01;;;;;;;78.38;43.00;;;;;;;-144.47;100.00;61586.06;5000943;28;20035;-77
2022/01/19 08:24:28;;;;;;;78.03;43.40;;;;;;;-144.47;100.00;61586.06;4997130;28;20089;-76
2022/01/19 08:26:56;;;;;;;83.32;43.47;;;;;;;-144.47;100.00;61586.06;5000578;28;20542;-76
2022/01/19 08:29:27;;;;;;;76.53;43.85;;;;;;;-144.47;100.00;61586.06;5003833;28;20049;-78
2022/01/19 08:31:58;;;;;;;74.80;41.63;;;;;;;-144.47;100.00;61586.06;4999858;28;20443;-77
2022/01/19 08:34:58;;;;;;;71.88;40.47;;;;;;;-144.47;100.00;61586.06;4992772;28;20038;-77
2022/01/19 08:37:24;;;;;;;77.85;43.42;;;;;;;-144.47;100.00;61586.06;5002532;28;20089;-77
2022/01/19 08:39:57;;;;;;;74.97;42.13;;;;;;;-144.47;100.00;61586.06;5003661;28;20037;-78
2022/01/19 08:42:24;;;;;;;80.15;43.78;;;;;;;-144.47;100.00;61586.06;5003301;28;20042;-77
2022/01/19 08:44:51;;;;;;;77.95;43.72;;;;;;;-144.47;100.00;61586.06;5004122;28;20030;-75
2022/01/19 08:47:24;;;;;;;77.47;43.22;;;;;;;-144.47;100.00;61586.06;5001648;28;20042;-78
2022/01/19 08:50:25;;;;;;;71.30;41.50;;;;;;;-144.47;100.00;61586.06;5001031;28;20077;-78
2022/01/19 08:53:23;;;;;;;70.88;41.47;;;;;;;-144.47;100.00;61586.06;4983723;28;20046;-77
2022/01/19 08:56:03;;;;;;;74.13;41.20;;;;;;;-144.47;100.00;61586.06;5000888;28;20026;-78
2022/01/19 08:58:28;;;;;;;79.47;42.20;;;;;;;-144.47;100.00;61586.06;4998159;28;20073;-77
2022/01/19 09:00:54;;;;;;;71.90;41.63;;;;;;;-144.47;100.00;61586.06;5001971;28;20062;-78
2022/01/19 09:03:20;;;;;;;72.63;42.50;;;;;;;-144.47;100.00;61586.06;5000982;28;20034;-77
2022/01/19 09:05:46;;;;;;;75.63;43.88;;;;;;;-144.47;100.00;61586.06;5003021;28;20468;-79
2022/01/19 09:08:11;;;;;;;76.47;43.20;;;;;;;-144.47;100.00;61586.06;5004089;28;20113;-78
2022/01/19 09:10:40;;;;;;;82.65;44.53;;;;;;;-144.47;100.00;61586.06;5002572;28;20253;-77
2022/01/19 09:13:06;;;;;;;77.55;44.83;;;;;;;-144.47;100.00;61586.06;5005490;28;20037;-77
2022/01/19 09:15:31;;;;;;;77.82;45.20;;;;;;;-144.47;100.00;61586.06;5000570;28;20030;-77
2022/01/19 09:17:57;;;;;;;77.28;44.95;;;;;;;-144.47;100.00;61586.06;5003314;28;20041;-77
2022/01/19 09:20:22;;;;;;;81.97;43.20;;;;;;;-144.47;100.00;61586.06;5002674;28;20037;-78
2022/01/19 09:22:49;;;;;;;75.80;43.33;;;;;;;-144.47;100.00;61586.06;5005848;28;20446;-77
2022/01/19 09:25:15;;;;;;;75.32;44.47;;;;;;;-144.47;100.00;61586.06;5001709;28;20088;-77
2022/01/19 09:27:41;;;;;;;76.95;43.00;;;;;;;-144.47;100.00;61586.06;5000427;28;20034;-77
2022/01/19 09:30:14;;;;;;;81.63;44.65;;;;;;;-144.47;100.00;61586.06;5003522;28;20800;-77
2022/01/19 09:32:41;;;;;;;78.55;43.50;;;;;;;-144.47;100.00;61586.06;5006663;28;20053;-77
2022/01/19 09:35:09;;;;;;;79.78;44.13;;;;;;;-144.47;100.00;61586.06;5009183;28;20089;-77
2022/01/19 09:37:37;;;;;;;72.45;43.13;;;;;;;-144.47;100.00;61586.06;5011414;28;20348;-76
2022/01/19 09:40:05;;;;;;;77.95;44.00;;;;;;;-144.47;100.00;61586.06;5011367;28;20065;-77
2022/01/19 09:42:30;;;;;;;82.88;45.63;;;;;;;-144.47;100.00;61586.06;5038989;28;20035;-77
2022/01/19 09:44:56;;;;;;;73.72;43.25;;;;;;;-144.47;100.00;61586.06;5009195;28;20099;-77
2022/01/19 09:47:22;;;;;;;71.30;43.60;;;;;;;-144.47;100.00;61586.06;5001334;28;20035;-77
2022/01/19 09:49:47;;;;;;;80.03;44.95;;;;;;;-144.47;100.00;61586.06;5002481;28;20494;-77
2022/01/19 09:52:13;;;;;;;77.50;43.80;;;;;;;-144.47;100.00;61586.06;5003903;28;20082;-77
2022/01/19 09:54:38;;;;;;;77.45;44.50;;;;;;;-144.47;100.00;61586.06;5001929;28;20037;-77
2022/01/19 09:57:05;;;;;;;75.53;43.13;;;;;;;-144.47;100.00;61586.06;5003575;28;20533;-77
2022/01/19 09:59:31;;;;;;;76.03;43.28;;;;;;;-144.47;100.00;61586.06;5005796;28;20034;-76
2022/01/19 10:02:08;;;;;;;77.10;43.40;;;;;;;-144.47;100.00;61586.06;5001904;28;20034;-77
2022/01/19 10:04:37;;;;;;;75.65;45.08;;;;;;;-144.47;100.00;61586.06;4997624;28;20030;-78
2022/01/19 10:07:21;;;;;;;78.05;44.97;;;;;;;-144.47;100.00;61586.06;4996539;28;20034;-76
2022/01/19 10:09:51;;;;;;;79.47;44.97;;;;;;;-144.47;100.00;61586.06;4996758;28;20140;-77
2022/01/19 10:18:29;;;;;;;79.20;43.75;;;;;;;-144.47;100.00;61586.06;4994460;28;20099;-76
2022/01/19 10:21:13;;;;;;;77.95;42.50;;;;;;;-144.47;100.00;61586.06;4997451;28;20038;-75
2022/01/19 10:23:45;;;;;;;78.45;45.13;;;;;;;-144.47;100.00;61586.06;4994541;28;20077;-78
2022/01/19 10:26:13;;;;;;;83.47;46.45;;;;;;;-144.47;100.00;61586.06;4994467;28;20026;-77
2022/01/19 10:29:03;;;;;;;77.95;43.00;;;;;;;-144.47;100.00;61586.06;4997261;28;20058;-76
2022/01/19 10:31:30;;;;;;;74.85;43.05;;;;;;;-144.47;100.00;61586.06;5001763;28;20042;-78
2022/01/19 10:34:14;;;;;;;73.43;44.65;;;;;;;-144.47;100.00;61586.06;5001182;28;20046;-77
2022/01/19 10:36:52;;;;;;;77.38;44.08;;;;;;;-144.47;100.00;61586.06;4999678;28;20038;-77
2022/01/19 10:39:19;;;;;;;70.10;42.50;;;;;;;-144.47;100.00;61586.06;5000608;28;20025;-78
2022/01/19 10:42:01;;;;;;;72.65;41.17;;;;;;;-144.47;100.00;61586.06;5000418;28;20119;-77
2022/01/19 10:44:51;;;;;;;72.95;42.05;;;;;;;-144.47;100.00;61586.06;4995945;28;20061;-76
2022/01/19 10:47:18;;;;;;;74.32;42.13;;;;;;;-144.47;100.00;61586.06;4997861;28;20026;-77
2022/01/19 10:49:56;;;;;;;72.43;40.85;;;;;;;-144.47;100.00;61586.06;4998820;28;20407;-74
2022/01/19 10:52:40;;;;;;;67.28;39.88;;;;;;;-144.47;100.00;61586.06;5000884;28;20038;-76
2022/01/19 10:55:12;;;;;;;68.03;40.55;;;;;;;-144.47;100.00;61586.06;4993503;28;20113;-76
2022/01/19 10:57:40;;;;;;;69.00;41.20;;;;;;;-144.47;100.00;61586.06;5001649;28;20038;-77
2022/01/19 11:00:11;;;;;;;72.47;41.92;;;;;;;-144.47;100.00;61586.06;4999792;28;20029;-76
2022/01/19 11:02:37;;;;;;;71.00;40.92;;;;;;;-144.47;100.00;61586.06;5002397;28;20045;-77
2022/01/19 11:05:03;;;;;;;70.85;40.83;;;;;;;-144.47;100.00;61586.06;4997990;28;20038;-77
2022/01/19 11:07:29;;;;;;;64.70;38.90;;;;;;;-144.47;100.00;61586.06;5003280;28;20578;-77
2022/01/19 11:10:17;;;;;;;72.13;42.10;;;;;;;-144.47;100.00;61586.06;4996096;28;20046;-76
2022/01/19 11:12:55;;;;;;;69.65;40.40;;;;;;;-144.47;100.00;61586.06;5003831;28;20110;-76
2022/01/19 11:15:20;;;;;;;68.38;39.22;;;;;;;-144.47;100.00;61586.06;5000383;28;20054;-77
2022/01/19 11:17:48;;;;;;;62.50;39.03;;;;;;;-144.47;100.00;61586.06;5000999;28;20081;-76
2022/01/19 11:20:19;;;;;;;65.55;38.30;;;;;;;-144.47;100.00;61586.06;5001049;28;20426;-77
2022/01/19 11:23:18;;;;;;;67.55;38.15;;;;;;;-144.47;100.00;61586.06;4998558;28;20159;-76
2022/01/19 11:26:05;;;;;;;61.38;36.42;;;;;;;-144.47;100.00;61586.06;4948481;28;20118;-75
2022/01/19 11:28:38;;;;;;;61.65;37.33;;;;;;;-144.47;100.00;61586.06;4993018;28;20073;-75
2022/01/19 11:31:11;;;;;;;69.93;40.28;;;;;;;-144.47;100.00;61586.06;5009983;28;20034;-76
2022/01/19 11:33:44;;;;;;;61.55;36.67;;;;;;;-144.47;100.00;61586.06;5001746;28;20509;-76
2022/01/19 11:36:24;;;;;;;61.85;36.88;;;;;;;-144.47;100.00;61586.06;5001581;28;20037;-77
2022/01/19 11:39:03;;;;;;;67.07;36.90;;;;;;;-144.47;100.00;61586.06;4992258;28;20394;-75
2022/01/19 11:41:35;;;;;;;64.38;36.85;;;;;;;-144.47;100.00;61586.06;4998245;28;20453;-76
2022/01/19 11:44:01;;;;;;;61.03;35.22;;;;;;;-144.47;100.00;61586.06;4996576;28;20057;-76
2022/01/19 11:46:36;;;;;;;61.42;36.08;;;;;;;-144.47;100.00;61586.06;5000445;28;20152;-75
2022/01/19 11:49:04;;;;;;;64.35;37.05;;;;;;;-144.47;100.00;61586.06;4994476;28;20030;-75
2022/01/19 11:51:31;;;;;;;63.13;38.38;;;;;;;-144.47;100.00;61586.06;4994347;28;20042;-75
2022/01/19 11:54:07;;;;;;;61.90;37.53;;;;;;;-144.47;100.00;61586.06;5003822;28;20040;-77
2022/01/19 11:56:58;;;;;;;71.80;38.78;;;;;;;-144.47;100.00;61586.06;5001488;28;20045;-77
2022/01/19 11:59:30;;;;;;;70.00;40.53;;;;;;;-144.47;100.00;61586.06;5000793;28;20486;-74
2022/01/19 12:02:36;;;;;;;71.40;41.85;;;;;;;-144.47;100.00;61586.06;4997692;28;20092;-74
2022/01/19 12:05:29;;;;;;;70.65;41.03;;;;;;;-144.47;100.00;61586.06;4938140;29;20171;-73
2022/01/19 12:08:19;;;;;;;73.90;40.15;;;;;;;-144.47;100.00;61586.06;4938162;29;20047;-75
2022/01/19 12:10:48;;;;;;;84.07;44.83;;;;;;;-144.47;100.00;61586.06;4923169;29;20055;-74
2022/01/19 12:13:55;;;;;;;82.50;46.88;;;;;;;-144.47;100.00;61586.06;4936009;29;20164;-73
2022/01/19 12:19:06;;;;;;;89.35;48.10;;;;;;;-144.47;100.00;61586.06;4932360;29;20055;-73
2022/01/19 12:21:31;;;;;;;98.25;51.40;;;;;;;-144.47;100.00;61586.06;4933799;29;20139;-74
2022/01/19 12:24:32;;;;;;;97.95;52.05;;;;;;;-144.47;100.00;61586.06;4936017;29;20040;-73
2022/01/19 12:27:15;;;;;;;98.22;52.70;;;;;;;-144.47;100.00;61586.06;4951952;28;20503;-73
2022/01/19 12:29:47;;;;;;;105.45;55.17;;;;;;;-144.47;100.00;61586.06;4918503;29;20040;-74
2022/01/19 12:32:19;;;;;;;114.00;56.92;;;;;;;-144.47;100.00;61586.06;4934148;29;20051;-74
2022/01/19 12:34:58;;;;;;;126.50;63.50;;;;;;;-144.47;100.00;61586.06;4935084;29;20050;-73
2022/01/19 12:37:26;;;;;;;116.07;59.53;;;;;;;-144.47;100.00;61586.06;4934367;29;20040;-75
2022/01/19 12:39:52;;;;;;;111.80;57.13;;;;;;;-144.47;100.00;61586.06;4988500;28;20042;-74
2022/01/19 12:42:39;;;;;;;123.00;61.33;;;;;;;-144.47;100.00;61586.06;4994385;28;20034;-73
2022/01/19 12:45:15;;;;;;;118.60;61.70;;;;;;;-144.47;100.00;61586.06;4993461;28;20035;-74
2022/01/19 12:47:40;;;;;;;120.28;59.22;;;;;;;-144.47;100.00;61586.06;4989067;28;20041;-75
2022/01/19 12:50:08;;;;;;;125.07;62.42;;;;;;;-144.47;100.00;61586.06;4995072;28;20027;-76
2022/01/19 12:52:41;;;;;;;124.18;60.95;;;;;;;-144.47;100.00;61586.06;5001436;28;20435;-76